createdAt,value
2023-02-19T00:00:13.602Z,16.00
2023-02-19T00:01:13.594Z,18.20
2023-02-19T00:02:13.569Z,16.70
2023-02-19T00:03:13.603Z,16.60
2023-02-19T00:04:13.534Z,18.80
2023-02-19T00:05:13.565Z,16.10
2023-02-19T00:06:13.493Z,18.00
2023-02-19T00:07:13.487Z,14.80
2023-02-19T00:08:13.488Z,16.10
2023-02-19T00:09:13.476Z,16.10
2023-02-19T00:10:13.430Z,13.60
2023-02-19T00:11:13.407Z,17.00
2023-02-19T00:12:13.388Z,16.80
2023-02-19T00:13:13.408Z,17.80
2023-02-19T00:14:13.383Z,17.20
2023-02-19T00:15:13.339Z,16.80
2023-02-19T00:16:13.319Z,17.60
2023-02-19T00:17:13.306Z,17.30
2023-02-19T00:18:13.315Z,19.10
2023-02-19T00:19:13.298Z,15.80
2023-02-19T00:20:13.257Z,16.30
2023-02-19T00:21:13.241Z,16.10
2023-02-19T00:22:13.227Z,17.80
2023-02-19T00:23:13.254Z,17.30
2023-02-19T00:24:13.223Z,16.90
2023-02-19T00:25:13.168Z,17.60
2023-02-19T00:26:18.423Z,16.50
2023-02-19T00:27:15.124Z,16.30
2023-02-19T00:28:14.126Z,17.40
2023-02-19T00:29:13.126Z,16.50
2023-02-19T00:30:13.099Z,15.70
2023-02-19T00:31:13.535Z,15.20
2023-02-19T00:32:13.069Z,16.10
2023-02-19T00:33:14.027Z,17.00
2023-02-19T00:34:13.044Z,18.00
2023-02-19T00:35:13.005Z,14.00
2023-02-19T00:36:12.989Z,14.70
2023-02-19T00:37:12.963Z,14.90
2023-02-19T00:38:12.947Z,16.00
2023-02-19T00:39:12.956Z,16.00
2023-02-19T00:40:12.907Z,15.30
2023-02-19T00:41:12.895Z,14.60
2023-02-19T00:42:12.878Z,16.10
2023-02-19T00:43:12.878Z,16.40
2023-02-19T00:44:12.871Z,14.30
2023-02-19T00:45:12.823Z,16.70
2023-02-19T00:46:12.840Z,15.50
2023-02-19T00:47:12.807Z,14.40
2023-02-19T00:48:12.779Z,17.80
2023-02-19T00:49:12.792Z,17.50
2023-02-19T00:50:12.749Z,15.40
2023-02-19T00:51:12.787Z,15.40
2023-02-19T00:52:12.708Z,15.80
2023-02-19T00:53:12.695Z,17.20
2023-02-19T00:54:12.696Z,14.10
2023-02-19T00:55:12.669Z,15.60
2023-02-19T00:56:12.641Z,15.30
2023-02-19T00:57:12.631Z,14.20
2023-02-19T00:58:12.599Z,14.50
2023-02-19T00:59:12.608Z,13.40
2023-02-19T01:00:12.571Z,15.70
2023-02-19T01:01:12.614Z,15.00
2023-02-19T01:02:12.533Z,14.60
2023-02-19T01:03:12.514Z,12.80
2023-02-19T01:04:12.526Z,14.20
2023-02-19T01:05:12.477Z,12.10
2023-02-19T01:06:12.456Z,13.30
2023-02-19T01:07:12.458Z,13.10
2023-02-19T01:08:12.426Z,12.50
2023-02-19T01:09:12.453Z,13.00
2023-02-19T01:10:12.379Z,12.30
2023-02-19T01:11:13.486Z,13.20
2023-02-19T01:12:12.356Z,14.00
2023-02-19T01:13:12.338Z,15.40
2023-02-19T01:14:12.350Z,15.30
2023-02-19T01:15:12.304Z,13.30
2023-02-19T01:16:12.329Z,13.60
2023-02-19T01:17:12.335Z,14.40
2023-02-19T01:18:12.257Z,12.90
2023-02-19T01:19:12.755Z,14.40
2023-02-19T01:20:12.220Z,14.80
2023-02-19T01:21:12.467Z,13.60
2023-02-19T01:22:12.196Z,14.40
2023-02-19T01:23:12.161Z,14.90
2023-02-19T01:24:13.175Z,13.90
2023-02-19T01:25:12.132Z,13.70
2023-02-19T01:26:12.113Z,15.10
2023-02-19T01:27:12.094Z,14.30
2023-02-19T01:28:12.077Z,15.80
2023-02-19T01:29:12.090Z,14.70
2023-02-19T01:30:12.082Z,15.20
2023-02-19T01:31:12.506Z,16.00
2023-02-19T01:32:12.060Z,14.80
2023-02-19T01:33:11.994Z,13.90
2023-02-19T01:34:11.999Z,12.70
2023-02-19T01:35:11.973Z,13.20
2023-02-19T01:36:11.941Z,11.50
2023-02-19T01:37:11.919Z,14.80
2023-02-19T01:38:11.901Z,12.00
2023-02-19T01:39:11.916Z,12.50
2023-02-19T01:40:11.864Z,13.30
2023-02-19T01:41:12.241Z,11.30
2023-02-19T01:42:11.832Z,11.50
2023-02-19T01:43:11.816Z,12.10
2023-02-19T01:44:11.822Z,11.70
2023-02-19T01:45:11.779Z,9.30
2023-02-19T01:46:11.809Z,9.90
2023-02-19T01:47:11.744Z,11.90
2023-02-19T01:48:11.728Z,9.40
2023-02-19T01:49:11.744Z,10.50
2023-02-19T01:50:11.696Z,9.90
2023-02-19T01:51:11.999Z,9.50
2023-02-19T01:52:11.660Z,9.50
2023-02-19T01:53:11.641Z,9.30
2023-02-19T01:54:11.651Z,9.60
2023-02-19T01:55:11.614Z,8.00
2023-02-19T01:56:11.588Z,8.10
2023-02-19T01:57:11.604Z,8.40
2023-02-19T01:58:11.560Z,6.90
2023-02-19T01:59:11.569Z,7.90
2023-02-19T02:00:11.517Z,7.10
2023-02-19T02:01:11.959Z,6.70
2023-02-19T02:02:11.530Z,5.90
2023-02-19T02:03:11.468Z,6.40
2023-02-19T02:04:11.481Z,5.50
2023-02-19T02:05:11.428Z,6.30
2023-02-19T02:06:11.416Z,6.60
2023-02-19T02:07:11.395Z,5.70
2023-02-19T02:08:11.380Z,6.50
2023-02-19T02:09:11.392Z,5.50
2023-02-19T02:10:11.353Z,4.80
2023-02-19T02:11:11.601Z,4.80
2023-02-19T02:12:11.310Z,5.40
2023-02-19T02:13:11.297Z,5.60
2023-02-19T02:14:11.313Z,5.50
2023-02-19T02:15:11.267Z,5.50
2023-02-19T02:16:11.264Z,5.40
2023-02-19T02:17:11.242Z,5.40
2023-02-19T02:18:11.214Z,4.60
2023-02-19T02:19:11.227Z,5.10
2023-02-19T02:20:11.188Z,5.70
2023-02-19T02:21:11.446Z,6.00
2023-02-19T02:22:11.142Z,5.30
2023-02-19T02:23:11.125Z,8.00
2023-02-19T02:24:11.136Z,6.20
2023-02-19T02:25:11.092Z,6.90
2023-02-19T02:26:11.078Z,6.30
2023-02-19T02:27:11.056Z,6.30
2023-02-19T02:28:11.036Z,5.60
2023-02-19T02:29:11.051Z,7.40
2023-02-19T02:30:11.035Z,6.40
2023-02-19T02:31:11.320Z,6.20
2023-02-19T02:32:11.010Z,7.00
2023-02-19T02:33:10.964Z,7.70
2023-02-19T02:34:10.961Z,7.00
2023-02-19T02:35:10.928Z,6.40
2023-02-19T02:36:10.906Z,8.10
2023-02-19T02:37:10.892Z,8.70
2023-02-19T02:38:10.865Z,9.40
2023-02-19T02:39:10.901Z,7.70
2023-02-19T02:40:10.826Z,8.50
2023-02-19T02:41:11.093Z,8.30
2023-02-19T02:42:10.803Z,7.70
2023-02-19T02:43:10.782Z,7.80
2023-02-19T02:44:10.786Z,8.00
2023-02-19T02:45:10.744Z,7.30
2023-02-19T02:46:10.724Z,7.70
2023-02-19T02:47:10.708Z,7.90
2023-02-19T02:48:10.737Z,9.00
2023-02-19T02:49:10.700Z,7.90
2023-02-19T02:50:10.652Z,9.40
2023-02-19T02:51:10.942Z,8.00
2023-02-19T02:52:10.621Z,8.50
2023-02-19T02:53:10.603Z,8.70
2023-02-19T02:54:10.616Z,9.10
2023-02-19T02:55:10.562Z,10.30
2023-02-19T02:56:10.544Z,8.20
2023-02-19T02:57:10.531Z,9.00
2023-02-19T02:58:10.512Z,8.30
2023-02-19T02:59:10.520Z,8.70
2023-02-19T03:00:10.483Z,10.50
2023-02-19T03:01:10.773Z,9.40
2023-02-19T03:02:10.494Z,9.20
2023-02-19T03:03:10.424Z,8.80
2023-02-19T03:04:10.441Z,9.70
2023-02-19T03:05:10.389Z,8.50
2023-02-19T03:06:10.368Z,8.90
2023-02-19T03:07:10.389Z,8.80
2023-02-19T03:08:10.344Z,9.20
2023-02-19T03:09:10.319Z,9.90
2023-02-19T03:10:10.301Z,8.50
2023-02-19T03:11:10.538Z,9.00
2023-02-19T03:12:10.297Z,8.10
2023-02-19T03:13:10.263Z,7.90
2023-02-19T03:14:10.261Z,9.10
2023-02-19T03:15:10.224Z,8.00
2023-02-19T03:16:10.226Z,7.40
2023-02-19T03:17:10.186Z,8.10
2023-02-19T03:18:10.178Z,6.10
2023-02-19T03:19:10.172Z,7.30
2023-02-19T03:20:10.123Z,7.20
2023-02-19T03:21:10.548Z,7.90
2023-02-19T03:22:10.223Z,7.60
2023-02-19T03:23:10.071Z,7.30
2023-02-19T03:24:10.094Z,6.80
2023-02-19T03:25:10.048Z,6.20
2023-02-19T03:26:10.021Z,6.20
2023-02-19T03:27:10.004Z,6.30
2023-02-19T03:28:09.982Z,5.90
2023-02-19T03:29:10.007Z,6.40
2023-02-19T03:30:09.968Z,6.00
2023-02-19T03:31:10.283Z,7.30
2023-02-19T03:32:09.956Z,5.60
2023-02-19T03:33:09.900Z,6.10
2023-02-19T03:34:09.874Z,6.40
2023-02-19T03:35:09.890Z,6.20
2023-02-19T03:36:09.846Z,5.20
2023-02-19T03:37:09.834Z,5.10
2023-02-19T03:38:09.811Z,5.90
2023-02-19T03:39:09.796Z,5.80
2023-02-19T03:40:09.800Z,5.90
2023-02-19T03:41:10.089Z,5.00
2023-02-19T03:42:09.739Z,6.60
2023-02-19T03:43:09.809Z,6.80
2023-02-19T03:44:09.707Z,5.80
2023-02-19T03:45:09.720Z,6.80
2023-02-19T03:46:09.720Z,6.50
2023-02-19T03:47:09.659Z,4.50
2023-02-19T03:48:09.635Z,4.70
2023-02-19T03:49:09.626Z,5.60
2023-02-19T03:50:09.636Z,6.00
2023-02-19T03:51:09.882Z,7.30
2023-02-19T03:52:09.572Z,5.30
2023-02-19T03:53:09.553Z,6.10
2023-02-19T03:54:09.534Z,6.90
2023-02-19T03:55:09.547Z,7.80
2023-02-19T03:56:09.506Z,6.90
2023-02-19T03:57:09.485Z,7.80
2023-02-19T03:58:09.467Z,7.70
2023-02-19T03:59:09.450Z,6.70
2023-02-19T04:00:09.461Z,7.10
2023-02-19T04:01:09.839Z,6.80
2023-02-19T04:02:09.439Z,7.10
2023-02-19T04:03:09.381Z,6.90
2023-02-19T04:04:09.365Z,5.90
2023-02-19T04:05:09.376Z,4.50
2023-02-19T04:06:09.334Z,5.60
2023-02-19T04:07:09.321Z,4.80
2023-02-19T04:08:09.296Z,4.90
2023-02-19T04:09:09.278Z,3.90
2023-02-19T04:10:09.297Z,4.70
2023-02-19T04:11:09.649Z,4.50
2023-02-19T04:12:09.234Z,5.50
2023-02-19T04:13:09.212Z,4.40
2023-02-19T04:14:09.196Z,4.00
2023-02-19T04:15:09.208Z,4.10
2023-02-19T04:16:09.166Z,3.10
2023-02-19T04:17:09.151Z,3.80
2023-02-19T04:18:09.137Z,4.50
2023-02-19T04:19:09.119Z,4.30
2023-02-19T04:20:09.120Z,5.20
2023-02-19T04:21:09.425Z,3.70
2023-02-19T04:22:09.059Z,3.20
2023-02-19T04:23:09.038Z,3.10
2023-02-19T04:24:09.025Z,4.70
2023-02-19T04:25:09.043Z,3.40
2023-02-19T04:26:08.991Z,3.50
2023-02-19T04:27:08.977Z,5.60
2023-02-19T04:28:08.958Z,4.20
2023-02-19T04:29:08.938Z,5.30
2023-02-19T04:30:08.967Z,4.80
2023-02-19T04:31:09.374Z,4.40
2023-02-19T04:32:08.889Z,5.20
2023-02-19T04:33:08.873Z,6.20
2023-02-19T04:34:08.847Z,5.70
2023-02-19T04:35:08.868Z,5.10
2023-02-19T04:36:08.820Z,5.40
2023-02-19T04:37:08.794Z,7.20
2023-02-19T04:38:08.785Z,6.10
2023-02-19T04:39:08.752Z,7.80
2023-02-19T04:40:08.769Z,6.30
2023-02-19T04:41:09.151Z,7.70
2023-02-19T04:42:08.706Z,7.90
2023-02-19T04:43:08.688Z,8.10
2023-02-19T04:44:08.672Z,6.30
2023-02-19T04:45:08.681Z,6.60
2023-02-19T04:46:08.636Z,6.70
2023-02-19T04:47:08.617Z,6.70
2023-02-19T04:48:08.618Z,6.20
2023-02-19T04:49:08.585Z,8.10
2023-02-19T04:50:08.598Z,6.60
2023-02-19T04:51:08.800Z,7.70
2023-02-19T04:52:08.532Z,9.80
2023-02-19T04:53:08.521Z,7.10
2023-02-19T04:54:08.497Z,6.80
2023-02-19T04:55:08.514Z,6.30
2023-02-19T04:56:08.460Z,6.20
2023-02-19T04:57:08.448Z,7.30
2023-02-19T04:58:08.456Z,7.10
2023-02-19T04:59:08.411Z,5.70
2023-02-19T05:00:08.422Z,6.50
2023-02-19T05:01:08.703Z,7.50
2023-02-19T05:02:08.353Z,7.00
2023-02-19T05:03:08.349Z,6.40
2023-02-19T05:04:08.339Z,6.50
2023-02-19T05:05:08.345Z,6.40
2023-02-19T05:06:08.295Z,6.70
2023-02-19T05:07:08.268Z,7.70
2023-02-19T05:08:08.255Z,6.10
2023-02-19T05:09:08.242Z,8.90
2023-02-19T05:10:08.252Z,6.60
2023-02-19T05:11:08.431Z,9.20
2023-02-19T05:12:08.183Z,8.10
2023-02-19T05:13:08.164Z,7.50
2023-02-19T05:14:08.146Z,8.00
2023-02-19T05:15:08.161Z,9.80
2023-02-19T05:16:08.145Z,9.00
2023-02-19T05:17:08.097Z,9.30
2023-02-19T05:18:08.073Z,8.90
2023-02-19T05:19:08.073Z,9.10
2023-02-19T05:20:09.080Z,10.80
2023-02-19T05:21:08.374Z,8.80
2023-02-19T05:22:08.008Z,11.60
2023-02-19T05:23:08.074Z,9.70
2023-02-19T05:24:07.977Z,10.30
2023-02-19T05:25:07.986Z,9.20
2023-02-19T05:26:07.942Z,10.40
2023-02-19T05:27:07.923Z,11.70
2023-02-19T05:28:07.904Z,12.00
2023-02-19T05:29:07.887Z,11.60
2023-02-19T05:30:07.931Z,10.00
2023-02-19T05:31:07.962Z,11.40
2023-02-19T05:32:07.888Z,11.00
2023-02-19T05:33:07.817Z,10.50
2023-02-19T05:34:07.803Z,9.40
2023-02-19T05:35:07.820Z,11.00
2023-02-19T05:36:07.770Z,10.50
2023-02-19T05:37:07.748Z,10.40
2023-02-19T05:38:07.736Z,13.30
2023-02-19T05:39:07.752Z,12.10
2023-02-19T05:40:07.718Z,12.30
2023-02-19T05:41:07.710Z,11.80
2023-02-19T05:42:07.666Z,12.20
2023-02-19T05:43:07.661Z,12.40
2023-02-19T05:44:07.663Z,12.70
2023-02-19T05:45:07.644Z,15.00
2023-02-19T05:46:07.609Z,13.50
2023-02-19T05:47:07.585Z,14.60
2023-02-19T05:48:07.557Z,15.10
2023-02-19T05:49:07.546Z,14.70
2023-02-19T05:50:07.552Z,14.10
2023-02-19T05:51:07.578Z,16.20
2023-02-19T05:52:07.489Z,14.30
2023-02-19T05:53:07.477Z,13.00
2023-02-19T05:54:07.459Z,13.70
2023-02-19T05:55:07.475Z,14.40
2023-02-19T05:56:07.427Z,14.80
2023-02-19T05:57:07.413Z,12.60
2023-02-19T05:58:07.390Z,12.70
2023-02-19T05:59:07.405Z,14.00
2023-02-19T06:00:07.400Z,13.70
2023-02-19T06:01:07.345Z,13.40
2023-02-19T06:02:07.332Z,11.80
2023-02-19T06:03:07.311Z,14.00
2023-02-19T06:04:07.390Z,12.50
2023-02-19T06:05:07.300Z,10.70
2023-02-19T06:06:07.269Z,11.90
2023-02-19T06:07:07.244Z,11.50
2023-02-19T06:08:07.229Z,9.40
2023-02-19T06:09:07.210Z,9.40
2023-02-19T06:10:07.225Z,9.30
2023-02-19T06:11:07.176Z,11.90
2023-02-19T06:12:07.157Z,11.60
2023-02-19T06:13:07.140Z,10.10
2023-02-19T06:14:07.132Z,8.80
2023-02-19T06:15:07.135Z,9.40
2023-02-19T06:16:07.107Z,10.10
2023-02-19T06:17:07.065Z,7.60
2023-02-19T06:18:07.070Z,10.40
2023-02-19T06:19:07.051Z,9.90
2023-02-19T06:20:07.025Z,7.80
2023-02-19T06:21:07.034Z,9.00
2023-02-19T06:22:06.983Z,9.30
2023-02-19T06:23:06.963Z,8.80
2023-02-19T06:24:06.950Z,9.10
2023-02-19T06:25:06.977Z,8.30
2023-02-19T06:26:06.916Z,8.20
2023-02-19T06:27:06.903Z,8.60
2023-02-19T06:28:06.888Z,9.20
2023-02-19T06:29:06.861Z,7.90
2023-02-19T06:30:06.872Z,8.20
2023-02-19T06:31:06.878Z,7.80
2023-02-19T06:32:06.883Z,5.90
2023-02-19T06:33:06.805Z,6.00
2023-02-19T06:34:06.775Z,8.00
2023-02-19T06:35:06.805Z,6.90
2023-02-19T06:36:06.746Z,9.00
2023-02-19T06:37:06.728Z,7.40
2023-02-19T06:38:06.710Z,9.90
2023-02-19T06:39:06.693Z,8.20
2023-02-19T06:40:06.675Z,8.30
2023-02-19T06:41:06.699Z,8.50
2023-02-19T06:42:06.667Z,8.10
2023-02-19T06:43:06.624Z,7.70
2023-02-19T06:44:06.641Z,9.70
2023-02-19T06:45:06.593Z,9.00
2023-02-19T06:46:06.580Z,9.40
2023-02-19T06:47:06.560Z,7.50
2023-02-19T06:48:06.540Z,9.70
2023-02-19T06:49:06.567Z,11.20
2023-02-19T06:50:06.535Z,9.10
2023-02-19T06:51:06.489Z,8.70
2023-02-19T06:52:06.473Z,9.30
2023-02-19T06:53:06.459Z,13.40
2023-02-19T06:54:06.442Z,11.40
2023-02-19T06:55:06.421Z,13.30
2023-02-19T06:56:06.444Z,10.90
2023-02-19T06:57:06.382Z,9.80
2023-02-19T06:58:06.368Z,11.00
2023-02-19T06:59:06.349Z,11.80
2023-02-19T07:00:06.363Z,11.70
2023-02-19T07:01:06.349Z,12.20
2023-02-19T07:02:06.295Z,10.90
2023-02-19T07:03:06.274Z,11.50
2023-02-19T07:04:06.323Z,12.80
2023-02-19T07:05:06.246Z,13.30
2023-02-19T07:06:06.235Z,9.30
2023-02-19T07:07:06.203Z,13.00
2023-02-19T07:08:06.184Z,11.90
2023-02-19T07:09:06.194Z,12.50
2023-02-19T07:10:06.156Z,10.80
2023-02-19T07:11:06.164Z,13.60
2023-02-19T07:12:06.116Z,13.90
2023-02-19T07:13:06.098Z,12.60
2023-02-19T07:14:06.081Z,13.40
2023-02-19T07:15:06.077Z,12.40
2023-02-19T07:16:06.105Z,13.20
2023-02-19T07:17:06.026Z,11.80
2023-02-19T07:18:06.011Z,13.30
2023-02-19T07:19:05.991Z,13.30
2023-02-19T07:20:05.978Z,13.90
2023-02-19T07:21:06.721Z,14.00
2023-02-19T07:22:05.947Z,10.50
2023-02-19T07:23:05.924Z,13.10
2023-02-19T07:24:05.913Z,14.10
2023-02-19T07:25:05.892Z,16.00
2023-02-19T07:26:06.951Z,13.70
2023-02-19T07:27:05.862Z,14.40
2023-02-19T07:28:05.847Z,13.50
2023-02-19T07:29:05.827Z,13.60
2023-02-19T07:30:05.882Z,12.00
2023-02-19T07:31:05.857Z,11.10
2023-02-19T07:32:05.801Z,10.20
2023-02-19T07:33:05.787Z,12.50
2023-02-19T07:34:05.742Z,10.80
2023-02-19T07:35:05.742Z,11.40
2023-02-19T07:36:05.735Z,10.30
2023-02-19T07:37:05.716Z,11.00
2023-02-19T07:38:05.673Z,9.70
2023-02-19T07:39:05.654Z,10.30
2023-02-19T07:40:05.640Z,12.50
2023-02-19T07:41:05.663Z,11.00
2023-02-19T07:42:05.614Z,13.20
2023-02-19T07:43:05.590Z,11.30
2023-02-19T07:44:05.587Z,9.60
2023-02-19T07:45:05.558Z,11.90
2023-02-19T07:46:05.568Z,9.10
2023-02-19T07:47:05.524Z,10.50
2023-02-19T07:48:05.505Z,10.80
2023-02-19T07:49:05.524Z,11.50
2023-02-19T07:50:05.479Z,11.40
2023-02-19T07:51:05.500Z,9.00
2023-02-19T07:52:05.439Z,9.90
2023-02-19T07:53:05.420Z,9.60
2023-02-19T07:54:05.407Z,9.00
2023-02-19T07:55:05.415Z,10.30
2023-02-19T07:56:05.413Z,9.50
2023-02-19T07:57:05.361Z,10.40
2023-02-19T07:58:06.288Z,10.30
2023-02-19T07:59:06.323Z,10.00
2023-02-19T08:00:05.306Z,9.80
2023-02-19T08:01:05.342Z,11.90
2023-02-19T08:02:05.270Z,10.70
2023-02-19T08:03:05.274Z,9.90
2023-02-19T08:04:05.234Z,10.80
2023-02-19T08:05:05.214Z,9.80
2023-02-19T08:06:05.218Z,9.60
2023-02-19T08:07:05.175Z,12.60
2023-02-19T08:08:05.154Z,9.20
2023-02-19T08:09:05.138Z,9.80
2023-02-19T08:10:05.148Z,11.80
2023-02-19T08:11:05.126Z,10.60
2023-02-19T08:12:05.083Z,9.90
2023-02-19T08:13:05.065Z,9.10
2023-02-19T08:14:05.055Z,9.40
2023-02-19T08:15:05.039Z,8.80
2023-02-19T08:16:17.066Z,10.00
2023-02-19T08:17:07.018Z,10.20
2023-02-19T08:18:04.973Z,10.50
2023-02-19T08:19:04.949Z,10.00
2023-02-19T08:20:04.934Z,8.90
2023-02-19T08:21:04.940Z,8.00
2023-02-19T08:22:05.901Z,10.10
2023-02-19T08:23:04.882Z,8.40
2023-02-19T08:24:04.865Z,10.30
2023-02-19T08:25:04.847Z,9.80
2023-02-19T08:26:04.859Z,8.80
2023-02-19T08:27:04.809Z,8.60
2023-02-19T08:28:04.789Z,8.70
2023-02-19T08:29:05.778Z,9.80
2023-02-19T08:30:04.819Z,9.70
2023-02-19T08:31:04.833Z,9.40
2023-02-19T08:32:04.756Z,10.20
2023-02-19T08:33:04.711Z,9.50
2023-02-19T08:34:04.921Z,10.50
2023-02-19T08:35:04.667Z,8.70
2023-02-19T08:36:04.672Z,8.60
2023-02-19T08:37:04.634Z,8.90
2023-02-19T08:38:04.624Z,10.50
2023-02-19T08:39:04.601Z,10.50
2023-02-19T08:40:04.591Z,9.90
2023-02-19T08:41:04.596Z,10.30
2023-02-19T08:42:04.555Z,12.10
2023-02-19T08:43:04.551Z,10.90
2023-02-19T08:44:04.510Z,10.50
2023-02-19T08:45:04.492Z,9.80
2023-02-19T08:46:04.571Z,9.10
2023-02-19T08:47:04.457Z,8.50
2023-02-19T08:48:04.442Z,9.20
2023-02-19T08:49:04.418Z,10.60
2023-02-19T08:50:04.403Z,8.90
2023-02-19T08:51:04.424Z,9.60
2023-02-19T08:52:04.367Z,8.10
2023-02-19T08:53:04.353Z,10.40
2023-02-19T08:54:04.347Z,8.20
2023-02-19T08:55:04.313Z,8.90
2023-02-19T08:56:04.330Z,9.20
2023-02-19T08:57:04.280Z,9.00
2023-02-19T08:58:04.265Z,12.60
2023-02-19T08:59:04.251Z,10.80
2023-02-19T09:00:04.233Z,8.20
2023-02-19T09:01:04.255Z,8.40
2023-02-19T09:02:04.198Z,7.60
2023-02-19T09:03:04.186Z,11.20
2023-02-19T09:04:04.248Z,9.10
2023-02-19T09:05:04.153Z,9.50
2023-02-19T09:06:04.158Z,8.70
2023-02-19T09:07:04.113Z,9.70
2023-02-19T09:08:04.102Z,8.70
2023-02-19T09:09:04.080Z,8.20
2023-02-19T09:10:04.062Z,10.50
2023-02-19T09:11:04.073Z,8.00
2023-02-19T09:12:04.027Z,8.10
2023-02-19T09:13:04.011Z,9.60
2023-02-19T09:14:03.996Z,9.20
2023-02-19T09:15:03.973Z,7.80
2023-02-19T09:16:04.032Z,10.90
2023-02-19T09:17:03.952Z,8.30
2023-02-19T09:18:03.922Z,7.80
2023-02-19T09:19:03.908Z,8.70
2023-02-19T09:20:03.926Z,10.80
2023-02-19T09:21:03.877Z,9.20
2023-02-19T09:22:03.856Z,8.50
2023-02-19T09:23:03.845Z,5.90
2023-02-19T09:24:03.826Z,5.60
2023-02-19T09:25:03.840Z,8.30
2023-02-19T09:26:03.821Z,6.90
2023-02-19T09:27:03.776Z,5.30
2023-02-19T09:28:03.757Z,6.10
2023-02-19T09:29:03.743Z,5.80
2023-02-19T09:30:03.779Z,4.10
2023-02-19T09:31:03.786Z,2.70
2023-02-19T09:32:03.772Z,3.80
2023-02-19T09:33:03.670Z,3.10
2023-02-19T09:34:03.657Z,2.80
2023-02-19T09:35:03.638Z,2.70
2023-02-19T09:36:03.666Z,2.30
2023-02-19T09:37:03.606Z,1.60
2023-02-19T09:38:03.605Z,1.70
2023-02-19T09:39:03.577Z,2.20
2023-02-19T09:40:03.595Z,3.20
2023-02-19T09:41:03.541Z,4.50
2023-02-19T09:42:03.526Z,3.30
2023-02-19T09:43:03.507Z,2.50
2023-02-19T09:44:03.497Z,1.90
2023-02-19T09:45:03.505Z,2.70
2023-02-19T09:46:03.493Z,1.70
2023-02-19T09:47:03.470Z,2.50
2023-02-19T09:48:03.425Z,2.20
2023-02-19T09:49:03.415Z,1.70
2023-02-19T09:50:04.325Z,1.80
2023-02-19T09:51:03.376Z,1.70
2023-02-19T09:52:03.387Z,1.30
2023-02-19T09:53:03.340Z,1.80
2023-02-19T09:54:03.322Z,2.00
2023-02-19T09:55:03.299Z,1.80
2023-02-19T09:56:03.277Z,2.70
2023-02-19T09:57:03.290Z,1.80
2023-02-19T09:58:03.245Z,1.20
2023-02-19T09:59:03.227Z,3.30
2023-02-19T10:00:03.214Z,1.40
2023-02-19T10:01:03.207Z,1.50
2023-02-19T10:02:03.208Z,2.00
2023-02-19T10:03:03.161Z,1.40
2023-02-19T10:04:03.153Z,1.90
2023-02-19T10:05:03.179Z,1.90
2023-02-19T10:06:03.103Z,1.40
2023-02-19T10:07:03.121Z,1.80
2023-02-19T10:08:03.073Z,1.50
2023-02-19T10:09:03.056Z,1.70
2023-02-19T10:10:03.073Z,1.00
2023-02-19T10:11:03.019Z,1.60
2023-02-19T10:12:03.030Z,2.70
2023-02-19T10:13:02.990Z,1.50
2023-02-19T10:14:02.958Z,1.20
2023-02-19T10:15:03.963Z,0.70
2023-02-19T10:16:02.978Z,1.00
2023-02-19T10:17:02.951Z,1.80
2023-02-19T10:18:02.902Z,1.80
2023-02-19T10:19:02.886Z,2.60
2023-02-19T10:20:02.869Z,2.70
2023-02-19T10:21:02.861Z,2.60
2023-02-19T10:22:02.856Z,1.30
2023-02-19T10:23:02.813Z,1.60
2023-02-19T10:24:02.799Z,1.10
2023-02-19T10:25:02.802Z,2.90
2023-02-19T10:26:02.775Z,1.60
2023-02-19T10:27:02.773Z,1.60
2023-02-19T10:28:02.723Z,1.00
2023-02-19T10:29:02.709Z,1.00
2023-02-19T10:30:02.763Z,1.20
2023-02-19T10:31:02.751Z,1.30
2023-02-19T10:32:02.698Z,1.10
2023-02-19T10:33:03.666Z,1.30
2023-02-19T10:34:03.626Z,0.90
2023-02-19T10:35:02.618Z,1.60
2023-02-19T10:36:02.608Z,1.10
2023-02-19T10:37:02.616Z,2.90
2023-02-19T10:38:02.561Z,2.10
2023-02-19T10:39:02.545Z,1.00
2023-02-19T10:40:02.528Z,1.70
2023-02-19T10:41:02.515Z,2.30
2023-02-19T10:42:02.530Z,2.50
2023-02-19T10:43:02.481Z,1.90
2023-02-19T10:44:02.466Z,1.70
2023-02-19T10:45:02.444Z,1.60
2023-02-19T10:46:02.423Z,3.00
2023-02-19T10:47:02.436Z,1.90
2023-02-19T10:48:02.399Z,3.20
2023-02-19T10:49:02.378Z,1.20
2023-02-19T10:50:04.482Z,2.50
2023-02-19T10:51:03.337Z,3.70
2023-02-19T10:52:02.347Z,1.90
2023-02-19T10:53:02.308Z,3.10
2023-02-19T10:54:02.287Z,1.60
2023-02-19T10:55:02.274Z,3.10
2023-02-19T10:56:02.256Z,2.50
2023-02-19T10:57:02.275Z,2.80
2023-02-19T10:58:02.232Z,1.70
2023-02-19T10:59:02.205Z,2.70
2023-02-19T11:00:02.193Z,2.00
2023-02-19T11:01:03.468Z,3.50
2023-02-19T11:02:02.205Z,1.30
2023-02-19T11:03:02.140Z,1.70
2023-02-19T11:04:02.153Z,1.50
2023-02-19T11:05:02.104Z,1.60
2023-02-19T11:06:02.083Z,2.30
2023-02-19T11:07:02.094Z,1.10
2023-02-19T11:08:02.052Z,1.50
2023-02-19T11:09:02.048Z,2.10
2023-02-19T11:10:02.029Z,3.50
2023-02-19T11:11:01.991Z,0.80
2023-02-19T11:12:03.013Z,1.40
2023-02-19T11:13:01.968Z,1.00
2023-02-19T11:14:01.946Z,0.50
2023-02-19T11:15:01.933Z,1.50
2023-02-19T11:16:01.971Z,0.40
2023-02-19T11:17:01.936Z,0.70
2023-02-19T11:18:01.879Z,0.40
2023-02-19T11:19:01.869Z,0.60
2023-02-19T11:20:01.858Z,1.20
2023-02-19T11:21:01.835Z,2.40
2023-02-19T11:22:01.839Z,3.40
2023-02-19T11:23:01.809Z,2.60
2023-02-19T11:24:01.781Z,3.80
2023-02-19T11:25:01.762Z,1.90
2023-02-19T11:26:01.748Z,1.80
2023-02-19T11:27:01.756Z,1.90
2023-02-19T11:28:01.710Z,2.30
2023-02-19T11:29:01.694Z,2.30
2023-02-19T11:30:01.698Z,2.70
2023-02-19T11:31:01.693Z,3.20
2023-02-19T11:32:01.733Z,2.00
2023-02-19T11:33:01.630Z,1.00
2023-02-19T11:34:01.623Z,2.30
2023-02-19T11:35:01.594Z,2.70
2023-02-19T11:36:01.579Z,1.20
2023-02-19T11:37:01.584Z,1.20
2023-02-19T11:38:01.533Z,2.00
2023-02-19T11:39:01.537Z,2.80
2023-02-19T11:40:01.506Z,4.80
2023-02-19T11:41:01.483Z,2.80
2023-02-19T11:42:01.520Z,2.10
2023-02-19T11:43:01.454Z,2.00
2023-02-19T11:44:01.441Z,2.30
2023-02-19T11:45:01.422Z,2.60
2023-02-19T11:46:01.403Z,2.90
2023-02-19T11:47:01.416Z,1.70
2023-02-19T11:48:01.372Z,1.30
2023-02-19T11:49:01.353Z,4.20
2023-02-19T11:50:01.334Z,4.40
2023-02-19T11:51:01.326Z,3.00
2023-02-19T11:52:01.303Z,1.90
2023-02-19T11:53:01.323Z,2.30
2023-02-19T11:54:01.268Z,1.60
2023-02-19T11:55:01.249Z,4.00
2023-02-19T11:56:01.233Z,1.20
2023-02-19T11:57:01.218Z,3.40
2023-02-19T11:58:01.238Z,1.50
2023-02-19T11:59:01.388Z,3.30
2023-02-19T12:00:01.159Z,2.10
2023-02-19T12:01:01.158Z,2.60
2023-02-19T12:02:01.181Z,2.20
2023-02-19T12:03:01.134Z,2.00
2023-02-19T12:04:01.105Z,3.70
2023-02-19T12:05:01.094Z,4.20
2023-02-19T12:06:01.051Z,4.10
2023-02-19T12:07:01.036Z,3.80
2023-02-19T12:08:01.044Z,3.50
2023-02-19T12:09:01.000Z,2.30
2023-02-19T12:10:00.979Z,2.30
2023-02-19T12:11:00.962Z,1.50
2023-02-19T12:12:00.953Z,1.70
2023-02-19T12:13:00.957Z,2.10
2023-02-19T12:14:01.909Z,1.30
2023-02-19T12:15:00.904Z,2.60
2023-02-19T12:16:00.898Z,1.90
2023-02-19T12:17:00.859Z,2.00
2023-02-19T12:18:00.880Z,2.40
2023-02-19T12:19:00.822Z,4.30
2023-02-19T12:20:00.810Z,4.10
2023-02-19T12:21:00.787Z,2.80
2023-02-19T12:22:00.766Z,1.40
2023-02-19T12:23:00.777Z,1.40
2023-02-19T12:24:00.732Z,3.30
2023-02-19T12:25:00.719Z,3.90
2023-02-19T12:26:00.700Z,3.40
2023-02-19T12:27:00.680Z,2.40
2023-02-19T12:28:00.692Z,2.90
2023-02-19T12:29:00.645Z,1.60
2023-02-19T12:30:00.701Z,2.90
2023-02-19T12:31:00.647Z,2.60
2023-02-19T12:32:00.639Z,4.70
2023-02-19T12:33:00.607Z,1.00
2023-02-19T12:34:00.556Z,2.40
2023-02-19T12:35:00.543Z,2.30
2023-02-19T12:36:00.528Z,1.60
2023-02-19T12:37:00.506Z,1.10
2023-02-19T12:38:00.526Z,1.90
2023-02-19T12:39:00.471Z,1.30
2023-02-19T12:40:00.461Z,3.50
2023-02-19T12:41:00.436Z,3.00
2023-02-19T12:42:00.418Z,1.10
2023-02-19T12:43:00.427Z,2.20
2023-02-19T12:44:00.381Z,3.00
2023-02-19T12:45:00.361Z,5.10
2023-02-19T12:46:00.385Z,2.90
2023-02-19T12:47:00.333Z,4.00
2023-02-19T12:48:00.344Z,3.10
2023-02-19T12:49:00.294Z,3.60
2023-02-19T12:50:00.276Z,3.10
2023-02-19T12:51:00.262Z,2.20
2023-02-19T12:52:00.232Z,2.80
2023-02-19T12:53:00.247Z,2.60
2023-02-19T12:54:00.197Z,5.20
2023-02-19T12:55:00.182Z,4.30
2023-02-19T12:56:00.167Z,3.60
2023-02-19T12:57:00.181Z,4.30
2023-02-19T12:58:00.163Z,2.10
2023-02-19T12:59:00.117Z,2.50
2023-02-19T13:00:00.112Z,3.10
2023-02-19T13:01:00.237Z,2.20
2023-02-19T13:02:00.092Z,1.80
2023-02-19T13:03:00.096Z,3.60
2023-02-19T13:04:00.029Z,2.70
2023-02-19T13:05:01.203Z,2.00
2023-02-19T13:05:59.999Z,3.20
2023-02-19T13:06:59.976Z,2.80
2023-02-19T13:07:59.984Z,2.40
2023-02-19T13:09:07.352Z,2.80
2023-02-19T13:10:01.910Z,2.70